Terminal Aerodrome Forecast
Issued by NWS

Home | Current Version | Previous Version | Text Only | Print | Product List | Glossary On
Versions: 1 2 3 4 5 6 7 8 9 10 11 12
000
FTUS42 KTBW 182329 AAA
TAFLAL
TAF AMD
KLAL 182329Z 1823/1924 34006KT P6SM VCTS SCT050CB
     FM190300 VRB04KT P6SM BKN120
     FM192000 13004KT P6SM SCT030 BKN050
      AMD NOT SKED 1902/1911=

USA.gov is the U.S. government's official web portal to all federal, state and local government web resources and services.